Wyatt, West Virginia
Current Conditions -  °F | °C
As of 4:12 AM on Thursday 27 Nov 2014 (Local Time) from KCKB Reporting Station
Haze Haze  
Wind Chill: 33°   Ceiling: 400
Heat Index: 33°   Visibility: 4mi
Dew Point: 32°   Wind: 0mph
Humidity: 96%   Direction: NA
Pressure: 29.99"   Gusts: NA
Location:  39.43°N, 80.35°W
Report Text: KCKB 270912Z AUTO 00000KT 4SM BR OVC004 01/00 A2999 RMK AO2 CIG 003V007 T00060000
Loading
Personal Weather Stations






























Interactive Weather Map New forecast layout! Learn more

10-Day Weather Forecast

Advertisements
Track Severe Weather on mobile